createdAt,value
2018-07-24T00:02:15.223Z,18.80
2018-07-24T00:04:47.245Z,18.70
2018-07-24T00:07:18.023Z,18.70
2018-07-24T00:09:48.868Z,18.60
2018-07-24T00:12:19.474Z,18.60
2018-07-24T00:14:50.146Z,18.50
2018-07-24T00:17:20.366Z,18.40
2018-07-24T00:19:51.159Z,18.30
2018-07-24T00:22:21.457Z,18.30
2018-07-24T00:24:51.891Z,18.40
2018-07-24T00:27:22.707Z,18.40
2018-07-24T00:29:53.871Z,18.30
2018-07-24T00:32:24.102Z,18.30
2018-07-24T00:34:54.620Z,18.10
2018-07-24T00:37:25.474Z,18.00
2018-07-24T00:39:56.556Z,18.00
2018-07-24T00:42:27.064Z,17.90
2018-07-24T00:44:58.092Z,17.90
2018-07-24T00:47:32.638Z,17.90
2018-07-24T00:50:03.485Z,17.90
2018-07-24T00:52:33.933Z,18.00
2018-07-24T00:55:04.675Z,17.90
2018-07-24T00:57:35.192Z,17.90
2018-07-24T01:00:05.875Z,17.90
2018-07-24T01:02:36.353Z,17.80
2018-07-24T01:05:07.061Z,17.90
2018-07-24T01:07:39.123Z,17.90
2018-07-24T01:10:10.762Z,17.90
2018-07-24T01:12:41.447Z,17.80
2018-07-24T01:15:11.816Z,17.70
2018-07-24T01:17:42.574Z,17.60
2018-07-24T01:20:12.987Z,17.50
2018-07-24T01:22:43.661Z,17.50
2018-07-24T01:25:14.083Z,17.50
2018-07-24T01:27:44.722Z,17.50
2018-07-24T01:30:15.201Z,17.40
2018-07-24T01:32:45.965Z,17.40
2018-07-24T01:35:16.135Z,17.30
2018-07-24T01:37:47.082Z,17.30
2018-07-24T01:40:17.293Z,17.30
2018-07-24T01:42:48.018Z,17.20
2018-07-24T01:45:18.362Z,17.20
2018-07-24T01:47:49.506Z,17.10
2018-07-24T01:50:20.114Z,17.20
2018-07-24T01:52:50.810Z,17.30
2018-07-24T01:55:21.892Z,17.30
2018-07-24T01:57:53.599Z,17.30
2018-07-24T02:00:23.817Z,17.30
2018-07-24T02:02:55.501Z,17.20
2018-07-24T02:05:25.763Z,17.10
2018-07-24T02:07:59.870Z,17.10
2018-07-24T02:10:30.469Z,17.00
2018-07-24T02:13:00.947Z,16.90
2018-07-24T02:15:30.939Z,16.90
2018-07-24T02:18:01.298Z,16.90
2018-07-24T02:20:31.640Z,16.90
2018-07-24T02:23:02.065Z,16.80
2018-07-24T02:25:32.924Z,16.90
2018-07-24T02:28:03.156Z,16.90
2018-07-24T02:30:33.967Z,16.90
2018-07-24T02:33:03.892Z,16.90
2018-07-24T02:35:35.165Z,16.90
2018-07-24T02:38:05.935Z,16.80
2018-07-24T02:40:36.257Z,16.70
2018-07-24T02:43:11.414Z,16.70
2018-07-24T02:45:42.283Z,16.60
2018-07-24T02:48:12.564Z,16.60
2018-07-24T02:50:42.715Z,16.60
2018-07-24T02:53:13.047Z,16.60
2018-07-24T02:55:43.422Z,16.60
2018-07-24T02:58:14.179Z,16.50
2018-07-24T03:00:44.568Z,16.50
2018-07-24T03:03:14.766Z,16.60
2018-07-24T03:05:45.080Z,16.50
2018-07-24T03:08:15.472Z,16.60
2018-07-24T03:10:46.120Z,16.60
2018-07-24T03:13:16.647Z,16.60
2018-07-24T03:15:49.310Z,16.50
2018-07-24T03:18:19.667Z,16.50
2018-07-24T03:20:50.529Z,16.60
2018-07-24T03:23:20.817Z,16.50
2018-07-24T03:25:51.598Z,16.50
2018-07-24T03:28:21.480Z,16.50
2018-07-24T03:30:53.194Z,16.40
2018-07-24T03:33:23.350Z,16.40
2018-07-24T03:35:54.084Z,16.40
2018-07-24T03:38:24.819Z,16.40
2018-07-24T03:40:55.187Z,16.40
2018-07-24T03:43:25.207Z,16.30
2018-07-24T03:45:55.409Z,16.20
2018-07-24T03:48:25.908Z,16.30
2018-07-24T03:50:56.088Z,16.20
2018-07-24T03:53:26.303Z,16.10
2018-07-24T03:55:56.738Z,16.10
2018-07-24T03:58:27.372Z,16.00
2018-07-24T04:00:57.515Z,16.00
2018-07-24T04:03:28.070Z,16.00
2018-07-24T04:05:58.724Z,16.10
2018-07-24T04:08:29.519Z,16.10
2018-07-24T04:13:30.699Z,16.20
2018-07-24T04:16:01.631Z,16.30
2018-07-24T04:18:38.970Z,16.30
2018-07-24T04:21:09.188Z,16.40
2018-07-24T04:23:39.547Z,16.40
2018-07-24T04:26:09.845Z,16.50
2018-07-24T04:28:41.593Z,16.50
2018-07-24T04:31:13.037Z,16.60
2018-07-24T04:33:44.394Z,16.70
2018-07-24T04:36:14.732Z,16.70
2018-07-24T04:38:45.349Z,16.70
2018-07-24T04:41:15.657Z,16.70
2018-07-24T04:43:45.598Z,16.80
2018-07-24T04:46:15.702Z,16.80
2018-07-24T04:48:46.645Z,16.90
2018-07-24T04:51:17.221Z,16.90
2018-07-24T04:53:48.073Z,17.00
2018-07-24T04:56:18.826Z,17.10
2018-07-24T04:58:49.361Z,17.20
2018-07-24T05:01:19.689Z,17.30
2018-07-24T05:03:50.416Z,17.40
2018-07-24T05:06:20.752Z,17.50
2018-07-24T05:08:51.062Z,17.60
2018-07-24T05:11:21.776Z,17.80
2018-07-24T05:13:52.207Z,17.90
2018-07-24T05:16:22.327Z,18.00
2018-07-24T05:18:52.689Z,18.10
2018-07-24T05:21:22.959Z,18.20
2018-07-24T05:23:53.317Z,18.40
2018-07-24T05:26:23.820Z,18.50
2018-07-24T05:28:55.343Z,18.60
2018-07-24T05:31:25.293Z,18.80
2018-07-24T05:33:55.460Z,19.00
2018-07-24T05:36:26.230Z,19.10
2018-07-24T05:38:56.606Z,19.30
2018-07-24T05:41:27.045Z,19.40
2018-07-24T05:43:57.404Z,19.60
2018-07-24T05:46:32.071Z,19.80
2018-07-24T05:49:02.820Z,19.90
2018-07-24T05:51:33.126Z,20.10
2018-07-24T05:54:03.406Z,20.30
2018-07-24T05:56:33.528Z,20.50
2018-07-24T05:59:03.936Z,20.70
2018-07-24T06:01:34.696Z,20.90
2018-07-24T06:04:04.812Z,21.00
2018-07-24T06:06:34.965Z,21.20
2018-07-24T06:09:06.811Z,21.40
2018-07-24T06:11:37.295Z,21.60
2018-07-24T06:14:07.842Z,21.80
2018-07-24T06:16:38.533Z,22.00
2018-07-24T06:19:09.215Z,22.10
2018-07-24T06:21:39.374Z,22.30
2018-07-24T06:24:10.047Z,22.50
2018-07-24T06:26:40.502Z,22.70
2018-07-24T06:29:10.657Z,22.90
2018-07-24T06:31:40.462Z,23.00
2018-07-24T06:34:10.765Z,23.10
2018-07-24T06:36:41.276Z,23.20
2018-07-24T06:39:13.461Z,23.30
2018-07-24T06:41:44.204Z,23.40
2018-07-24T06:44:14.666Z,23.50
2018-07-24T06:46:45.259Z,23.70
2018-07-24T06:49:16.240Z,23.80
2018-07-24T06:51:46.788Z,23.90
2018-07-24T06:54:17.307Z,24.00
2018-07-24T06:56:47.412Z,24.10
2018-07-24T06:59:18.164Z,24.20
2018-07-24T07:01:48.364Z,24.30
2018-07-24T07:04:19.605Z,24.50
2018-07-24T07:06:50.123Z,24.70
2018-07-24T07:09:20.903Z,24.80
2018-07-24T07:11:50.952Z,24.90
2018-07-24T07:14:21.605Z,25.00
2018-07-24T07:16:51.575Z,25.10
2018-07-24T07:19:22.657Z,25.30
2018-07-24T07:21:53.924Z,25.40
2018-07-24T07:24:24.118Z,25.50
2018-07-24T07:26:55.284Z,25.70
2018-07-24T07:29:25.387Z,25.80
2018-07-24T07:31:55.308Z,26.00
2018-07-24T07:34:26.289Z,26.10
2018-07-24T07:36:56.947Z,26.20
2018-07-24T07:39:27.518Z,26.30
2018-07-24T07:41:57.845Z,26.30
2018-07-24T07:44:28.289Z,26.40
2018-07-24T07:46:58.377Z,26.50
2018-07-24T07:49:28.724Z,26.60
2018-07-24T07:51:59.056Z,26.70
2018-07-24T07:54:29.525Z,26.80
2018-07-24T07:56:59.362Z,26.90
2018-07-24T07:59:29.439Z,27.10
2018-07-24T08:01:59.702Z,27.20
2018-07-24T08:04:29.521Z,27.30
2018-07-24T08:06:59.715Z,27.30
2018-07-24T08:09:29.701Z,27.50
2018-07-24T08:12:00.324Z,27.50
2018-07-24T08:14:29.992Z,27.50
2018-07-24T08:17:00.219Z,27.60
2018-07-24T08:19:29.759Z,27.70
2018-07-24T08:21:59.663Z,27.80
2018-07-24T08:24:29.956Z,27.90
2018-07-24T08:26:59.720Z,28.10
2018-07-24T08:29:38.181Z,28.20
2018-07-24T08:32:08.003Z,28.40
2018-07-24T08:34:41.770Z,28.50
2018-07-24T08:37:11.925Z,28.60
2018-07-24T08:39:41.865Z,28.70
2018-07-24T08:42:32.036Z,28.90
2018-07-24T08:45:01.992Z,29.00
2018-07-24T08:47:32.196Z,29.10
2018-07-24T08:50:02.381Z,29.20
2018-07-24T08:52:32.341Z,29.40
2018-07-24T08:55:01.978Z,29.50
2018-07-24T08:57:31.606Z,29.50
2018-07-24T09:00:01.384Z,29.60
2018-07-24T09:02:32.406Z,29.70
2018-07-24T09:05:02.607Z,29.90
2018-07-24T09:07:32.540Z,29.90
2018-07-24T09:10:02.760Z,29.90
2018-07-24T09:12:32.607Z,29.80
2018-07-24T09:15:02.085Z,29.80
2018-07-24T09:17:32.822Z,29.90
2018-07-24T09:20:03.818Z,30.70
2018-07-24T09:22:33.577Z,31.40
2018-07-24T09:25:03.500Z,32.30
2018-07-24T09:27:34.072Z,33.40
2018-07-24T09:30:04.150Z,34.30
2018-07-24T09:32:35.438Z,35.20
2018-07-24T09:35:05.628Z,35.50
2018-07-24T09:37:35.770Z,35.60
2018-07-24T09:40:06.104Z,36.00
2018-07-24T09:42:35.386Z,36.00
2018-07-24T09:45:05.655Z,36.20
2018-07-24T09:47:35.061Z,36.20
2018-07-24T09:50:06.721Z,36.60
2018-07-24T09:52:36.355Z,37.10
2018-07-24T09:55:05.692Z,37.40
2018-07-24T10:00:09.566Z,37.90
2018-07-24T10:02:39.446Z,37.40
2018-07-24T10:05:09.340Z,37.40
2018-07-24T10:07:40.025Z,37.60
2018-07-24T10:10:10.472Z,37.40
2018-07-24T10:12:40.688Z,36.60
2018-07-24T10:15:11.355Z,36.20
2018-07-24T10:17:41.569Z,36.20
2018-07-24T10:20:11.184Z,36.80
2018-07-24T10:25:11.805Z,37.80
2018-07-24T10:27:41.401Z,38.40
2018-07-24T10:30:10.749Z,38.80
2018-07-24T10:32:40.361Z,39.20
2018-07-24T10:35:10.625Z,39.70
2018-07-24T10:37:41.043Z,40.10
2018-07-24T10:40:12.483Z,40.20
2018-07-24T10:42:42.098Z,39.70
2018-07-24T10:45:12.970Z,39.30
2018-07-24T10:47:48.290Z,39.00
2018-07-24T10:50:18.603Z,39.40
2018-07-24T10:52:48.893Z,39.60
2018-07-24T10:55:19.367Z,39.70
2018-07-24T10:57:49.746Z,39.20
2018-07-24T11:00:20.351Z,38.90
2018-07-24T11:02:50.946Z,38.70
2018-07-24T11:05:20.972Z,38.30
2018-07-24T11:07:51.168Z,38.20
2018-07-24T11:10:21.404Z,38.70
2018-07-24T11:12:51.422Z,38.90
2018-07-24T11:15:21.746Z,38.40
2018-07-24T11:17:51.915Z,37.80
2018-07-24T11:20:21.960Z,38.10
2018-07-24T11:22:51.792Z,38.80
2018-07-24T11:25:21.720Z,39.50
2018-07-24T11:27:51.611Z,40.10
2018-07-24T11:30:21.302Z,40.70
2018-07-24T11:32:50.594Z,40.90
2018-07-24T11:35:20.534Z,41.20
2018-07-24T11:37:50.042Z,41.10
2018-07-24T11:40:21.357Z,40.90
2018-07-24T11:42:52.413Z,41.20
2018-07-24T11:45:22.967Z,40.80
2018-07-24T11:47:52.966Z,41.20
2018-07-24T11:50:23.184Z,42.00
2018-07-24T11:52:53.009Z,42.60
2018-07-24T11:55:23.317Z,42.70
2018-07-24T11:57:53.482Z,41.80
2018-07-24T12:00:23.801Z,41.40
2018-07-24T12:05:27.285Z,41.20
2018-07-24T12:07:56.954Z,41.90
2018-07-24T12:10:28.724Z,42.90
2018-07-24T12:12:58.555Z,43.30
2018-07-24T12:15:28.968Z,43.60
2018-07-24T12:17:59.858Z,42.70
2018-07-24T12:20:30.948Z,42.10
2018-07-24T12:23:01.078Z,42.10
2018-07-24T12:25:30.792Z,42.00
2018-07-24T12:28:00.813Z,42.80
2018-07-24T12:30:31.233Z,43.90
2018-07-24T12:33:01.325Z,44.40
2018-07-24T12:35:30.979Z,45.10
2018-07-24T12:38:00.772Z,45.40
2018-07-24T12:40:30.433Z,45.40
2018-07-24T12:43:00.466Z,45.80
2018-07-24T12:45:30.041Z,46.10
2018-07-24T12:47:59.934Z,46.00
2018-07-24T12:50:30.784Z,45.90
2018-07-24T12:53:01.117Z,45.70
2018-07-24T12:55:30.998Z,45.20
2018-07-24T12:58:02.049Z,45.30
2018-07-24T13:00:32.277Z,45.00
2018-07-24T13:03:02.379Z,44.70
2018-07-24T13:05:33.690Z,44.50
2018-07-24T13:08:03.485Z,44.20
2018-07-24T13:10:33.158Z,44.40
2018-07-24T13:13:05.220Z,45.10
2018-07-24T13:15:35.086Z,45.70
2018-07-24T13:18:05.168Z,45.90
2018-07-24T13:20:35.256Z,45.60
2018-07-24T13:23:05.659Z,44.70
2018-07-24T13:25:39.519Z,44.60
2018-07-24T13:28:09.038Z,44.70
2018-07-24T13:30:38.633Z,45.50
2018-07-24T13:33:09.026Z,46.10
2018-07-24T13:35:38.419Z,46.50
2018-07-24T13:38:07.929Z,47.00
2018-07-24T13:40:37.943Z,47.30
2018-07-24T13:43:07.727Z,46.20
2018-07-24T13:45:37.620Z,45.20
2018-07-24T13:48:09.681Z,44.70
2018-07-24T13:50:39.508Z,44.70
2018-07-24T13:53:09.679Z,44.70
2018-07-24T13:55:39.690Z,44.20
2018-07-24T13:58:09.621Z,44.40
2018-07-24T14:00:39.022Z,45.10
2018-07-24T14:03:08.662Z,45.80
2018-07-24T14:05:38.291Z,46.70
2018-07-24T14:08:08.220Z,46.80
2018-07-24T14:10:37.718Z,46.60
2018-07-24T14:13:07.127Z,47.20
2018-07-24T14:15:36.936Z,47.40
2018-07-24T14:18:06.244Z,47.30
2018-07-24T14:20:41.606Z,47.10
2018-07-24T14:23:11.463Z,46.90
2018-07-24T14:25:41.012Z,46.60
2018-07-24T14:28:10.195Z,46.40
2018-07-24T14:30:42.976Z,46.70
2018-07-24T14:33:12.459Z,47.30
2018-07-24T14:35:42.948Z,47.10
2018-07-24T14:38:13.192Z,47.60
2018-07-24T14:40:43.797Z,46.80
2018-07-24T14:43:13.649Z,46.60
2018-07-24T14:45:43.588Z,46.30
2018-07-24T14:48:13.343Z,46.60
2018-07-24T14:50:42.741Z,46.90
2018-07-24T14:53:12.491Z,46.90
2018-07-24T14:55:42.517Z,47.20
2018-07-24T14:58:12.056Z,47.30
2018-07-24T15:00:42.324Z,47.30
2018-07-24T15:03:11.860Z,47.20
2018-07-24T15:05:47.103Z,47.00
2018-07-24T15:08:17.363Z,47.40
2018-07-24T15:10:46.834Z,47.00
2018-07-24T15:13:23.102Z,46.90
2018-07-24T15:15:53.664Z,46.40
2018-07-24T15:18:24.782Z,45.90
2018-07-24T15:20:54.877Z,45.30
2018-07-24T15:23:25.019Z,45.50
2018-07-24T15:25:55.046Z,45.30
2018-07-24T15:28:25.849Z,44.90
2018-07-24T15:30:55.983Z,45.10
2018-07-24T15:33:25.839Z,44.80
2018-07-24T15:35:55.673Z,44.90
2018-07-24T15:38:25.986Z,45.50
2018-07-24T15:40:56.004Z,45.50
2018-07-24T15:43:25.640Z,45.10
2018-07-24T15:45:55.683Z,44.60
2018-07-24T15:48:24.807Z,43.90
2018-07-24T15:50:54.569Z,43.50
2018-07-24T15:53:24.140Z,44.00
2018-07-24T15:55:53.657Z,44.70
2018-07-24T15:58:22.949Z,45.10
2018-07-24T16:00:52.043Z,45.30
2018-07-24T16:03:23.216Z,46.20
2018-07-24T16:05:52.786Z,46.40
2018-07-24T16:08:22.129Z,46.60
2018-07-24T16:10:51.382Z,46.70
2018-07-24T16:13:20.908Z,46.40
2018-07-24T16:15:50.419Z,46.10
2018-07-24T16:18:19.637Z,45.80
2018-07-24T16:20:49.188Z,45.50
2018-07-24T16:23:18.700Z,45.40
2018-07-24T16:25:48.029Z,45.40
2018-07-24T16:28:17.631Z,45.30
2018-07-24T16:30:47.193Z,45.00
2018-07-24T16:33:16.850Z,44.80
2018-07-24T16:35:46.676Z,45.00
2018-07-24T16:38:15.986Z,45.50
2018-07-24T16:40:48.431Z,45.50
2018-07-24T16:43:17.699Z,45.30
2018-07-24T16:45:47.243Z,45.50
2018-07-24T16:48:16.822Z,45.90
2018-07-24T16:50:46.236Z,45.70
2018-07-24T16:53:15.336Z,45.90
2018-07-24T16:55:44.759Z,45.70
2018-07-24T16:58:14.545Z,45.50
2018-07-24T17:00:43.575Z,45.70
2018-07-24T17:03:13.211Z,45.60
2018-07-24T17:05:44.095Z,45.30
2018-07-24T17:08:13.926Z,45.20
2018-07-24T17:10:43.115Z,45.00
2018-07-24T17:13:12.533Z,44.90
2018-07-24T17:15:42.201Z,44.80
2018-07-24T17:18:11.639Z,44.60
2018-07-24T17:20:41.608Z,44.40
2018-07-24T17:23:16.676Z,44.10
2018-07-24T17:25:46.030Z,44.40
2018-07-24T17:28:15.642Z,44.40
2018-07-24T17:30:45.208Z,44.50
2018-07-24T17:33:15.424Z,44.20
2018-07-24T17:35:44.656Z,44.00
2018-07-24T17:38:15.434Z,43.70
2018-07-24T17:40:45.098Z,43.60
2018-07-24T17:43:14.704Z,43.80
2018-07-24T17:45:44.595Z,43.80
2018-07-24T17:48:14.278Z,43.30
2018-07-24T17:50:44.349Z,43.00
2018-07-24T17:53:14.435Z,42.30
2018-07-24T17:56:03.863Z,41.40
2018-07-24T17:58:34.094Z,40.30
2018-07-24T18:01:04.430Z,39.70
2018-07-24T18:03:34.685Z,39.20
2018-07-24T18:06:05.140Z,38.90
2018-07-24T18:08:35.641Z,38.40
2018-07-24T18:11:07.243Z,37.90
2018-07-24T18:13:37.573Z,37.60
2018-07-24T18:16:07.894Z,37.10
2018-07-24T18:18:38.663Z,36.70
2018-07-24T18:21:09.465Z,36.30
2018-07-24T18:23:39.294Z,36.10
2018-07-24T18:26:09.091Z,35.80
2018-07-24T18:28:38.645Z,35.60
2018-07-24T18:31:08.684Z,35.40
2018-07-24T18:33:38.948Z,35.20
2018-07-24T18:36:09.502Z,35.00
2018-07-24T18:38:39.246Z,34.80
2018-07-24T18:41:09.375Z,34.50
2018-07-24T18:43:39.179Z,34.30
2018-07-24T18:46:13.105Z,34.00
2018-07-24T18:48:42.715Z,33.80
2018-07-24T18:51:12.939Z,33.60
2018-07-24T18:53:43.262Z,33.40
2018-07-24T18:56:13.363Z,33.10
2018-07-24T18:58:43.456Z,32.90
2018-07-24T19:01:13.358Z,32.60
2018-07-24T19:03:51.876Z,32.40
2018-07-24T19:06:22.230Z,32.10
2018-07-24T19:08:52.218Z,31.90
2018-07-24T19:11:22.250Z,31.70
2018-07-24T19:13:52.640Z,31.60
2018-07-24T19:16:23.219Z,31.50
2018-07-24T19:18:53.730Z,31.30
2018-07-24T19:21:24.785Z,31.10
2018-07-24T19:23:55.031Z,30.90
2018-07-24T19:26:25.237Z,30.50
2018-07-24T19:28:55.563Z,30.30
2018-07-24T19:31:25.824Z,30.00
2018-07-24T19:33:56.177Z,29.90
2018-07-24T19:36:25.812Z,29.70
2018-07-24T19:38:56.145Z,29.40
2018-07-24T19:41:26.046Z,29.20
2018-07-24T19:43:55.958Z,29.00
2018-07-24T19:46:25.894Z,28.80
2018-07-24T19:48:56.504Z,28.70
2018-07-24T19:51:26.969Z,28.60
2018-07-24T19:53:57.271Z,28.60
2018-07-24T19:56:27.586Z,28.40
2018-07-24T19:58:58.564Z,28.20
2018-07-24T20:01:29.270Z,28.00
2018-07-24T20:03:59.721Z,27.80
2018-07-24T20:06:30.363Z,27.60
2018-07-24T20:09:00.528Z,27.70
2018-07-24T20:11:30.681Z,27.70
2018-07-24T20:14:00.654Z,27.80
2018-07-24T20:16:31.912Z,27.60
2018-07-24T20:19:02.525Z,27.40
2018-07-24T20:21:33.176Z,27.20
2018-07-24T20:24:03.779Z,26.90
2018-07-24T20:26:34.021Z,26.80
2018-07-24T20:29:04.737Z,26.60
2018-07-24T20:31:35.812Z,26.40
2018-07-24T20:34:06.277Z,26.30
2018-07-24T20:36:36.820Z,26.20
2018-07-24T20:39:10.439Z,26.10
2018-07-24T20:41:42.043Z,26.10
2018-07-24T20:44:12.582Z,25.90
2018-07-24T20:46:43.442Z,25.90
2018-07-24T20:49:14.287Z,25.80
2018-07-24T20:51:44.865Z,25.90
2018-07-24T20:54:14.959Z,25.90
2018-07-24T20:56:45.188Z,25.90
2018-07-24T21:04:15.828Z,25.70
2018-07-24T21:06:46.722Z,25.50
2018-07-24T21:09:16.862Z,25.40
2018-07-24T21:11:47.905Z,25.40
2018-07-24T21:14:18.375Z,25.30
2018-07-24T21:16:48.997Z,25.10
2018-07-24T21:19:19.305Z,25.00
2018-07-24T21:21:49.729Z,25.00
2018-07-24T21:24:20.187Z,25.20
2018-07-24T21:26:50.604Z,25.40
2018-07-24T21:29:21.548Z,25.70
2018-07-24T21:31:52.890Z,25.90
2018-07-24T21:34:23.120Z,26.10
2018-07-24T21:36:53.195Z,26.30
2018-07-24T21:39:23.896Z,26.30
2018-07-24T21:41:55.212Z,26.30
2018-07-24T21:44:26.495Z,26.30
2018-07-24T21:46:56.983Z,26.20
2018-07-24T21:49:27.170Z,25.90
2018-07-24T21:51:57.267Z,25.80
2018-07-24T21:54:28.162Z,25.80
2018-07-24T21:56:58.554Z,25.80
2018-07-24T21:59:29.888Z,25.80
2018-07-24T22:02:00.607Z,26.00
2018-07-24T22:07:02.073Z,26.00
2018-07-24T22:12:04.503Z,25.90
2018-07-24T22:14:36.569Z,25.90
2018-07-24T22:17:07.168Z,25.90
2018-07-24T22:19:37.707Z,25.80
2018-07-24T22:22:08.585Z,25.90
2018-07-24T22:24:38.952Z,25.80
2018-07-24T22:27:09.331Z,25.80
2018-07-24T22:29:39.579Z,25.80
2018-07-24T22:32:09.397Z,25.70
2018-07-24T22:34:40.004Z,25.70
2018-07-24T22:37:10.009Z,25.70
2018-07-24T22:39:40.729Z,25.70
2018-07-24T22:42:10.968Z,25.60
2018-07-24T22:44:40.933Z,25.60
2018-07-24T22:47:11.490Z,25.60
2018-07-24T22:49:43.942Z,25.50
2018-07-24T22:52:14.830Z,25.50
2018-07-24T22:54:45.005Z,25.50
2018-07-24T22:57:15.809Z,25.50
2018-07-24T22:59:46.639Z,25.50
2018-07-24T23:02:16.723Z,25.40
2018-07-24T23:07:17.140Z,25.30
2018-07-24T23:09:47.643Z,25.20
2018-07-24T23:12:17.596Z,25.00
2018-07-24T23:14:47.292Z,24.90
2018-07-24T23:17:18.017Z,24.70
2018-07-24T23:19:48.572Z,24.70
2018-07-24T23:22:18.692Z,24.60
2018-07-24T23:24:49.133Z,24.60
2018-07-24T23:27:19.307Z,24.50
2018-07-24T23:29:49.586Z,24.30
2018-07-24T23:32:19.932Z,24.20
2018-07-24T23:34:49.861Z,24.20
2018-07-24T23:37:19.682Z,24.10
2018-07-24T23:39:50.941Z,24.10
2018-07-24T23:42:21.289Z,23.90
2018-07-24T23:44:51.225Z,23.90
2018-07-24T23:47:21.192Z,23.70
2018-07-24T23:49:51.338Z,23.80
2018-07-24T23:52:21.378Z,23.70
2018-07-24T23:54:51.482Z,23.70
2018-07-24T23:57:21.939Z,23.70
2018-07-24T23:59:52.426Z,23.60
